sensor_id;sensor_type;location;lat;lon;timestamp;P1;durP1;ratioP1;P2;durP2;ratioP2
45328;SDS011;72636;48.160;11.428;2023-11-19T00:02:10;5.57;;;4.53;;
45328;SDS011;72636;48.160;11.428;2023-11-19T00:04:38;6.27;;;4.13;;
45328;SDS011;72636;48.160;11.428;2023-11-19T00:07:04;3.05;;;2.67;;
45328;SDS011;72636;48.160;11.428;2023-11-19T00:09:32;3.65;;;3.03;;
45328;SDS011;72636;48.160;11.428;2023-11-19T00:11:58;3.80;;;2.78;;
45328;SDS011;72636;48.160;11.428;2023-11-19T00:14:25;3.03;;;2.60;;
45328;SDS011;72636;48.160;11.428;2023-11-19T00:16:51;3.17;;;2.88;;
45328;SDS011;72636;48.160;11.428;2023-11-19T00:19:18;3.05;;;2.60;;
45328;SDS011;72636;48.160;11.428;2023-11-19T00:21:44;3.78;;;3.35;;
45328;SDS011;72636;48.160;11.428;2023-11-19T00:24:10;3.30;;;2.85;;
45328;SDS011;72636;48.160;11.428;2023-11-19T00:26:37;3.28;;;2.85;;
45328;SDS011;72636;48.160;11.428;2023-11-19T00:29:03;2.95;;;2.45;;
45328;SDS011;72636;48.160;11.428;2023-11-19T00:31:29;3.13;;;2.60;;
45328;SDS011;72636;48.160;11.428;2023-11-19T00:33:55;3.13;;;2.60;;
45328;SDS011;72636;48.160;11.428;2023-11-19T00:36:20;2.17;;;1.97;;
45328;SDS011;72636;48.160;11.428;2023-11-19T00:38:48;4.60;;;3.10;;
45328;SDS011;72636;48.160;11.428;2023-11-19T00:41:14;4.17;;;2.97;;
45328;SDS011;72636;48.160;11.428;2023-11-19T00:43:41;4.30;;;2.92;;
45328;SDS011;72636;48.160;11.428;2023-11-19T00:46:07;4.93;;;3.20;;
45328;SDS011;72636;48.160;11.428;2023-11-19T00:48:33;5.07;;;3.45;;
45328;SDS011;72636;48.160;11.428;2023-11-19T00:50:59;8.33;;;4.50;;
45328;SDS011;72636;48.160;11.428;2023-11-19T00:53:24;8.23;;;4.83;;
45328;SDS011;72636;48.160;11.428;2023-11-19T00:55:50;8.30;;;4.57;;
45328;SDS011;72636;48.160;11.428;2023-11-19T00:58:16;8.90;;;5.28;;
45328;SDS011;72636;48.160;11.428;2023-11-19T01:00:43;7.03;;;3.97;;
45328;SDS011;72636;48.160;11.428;2023-11-19T01:03:10;10.50;;;5.85;;
45328;SDS011;72636;48.160;11.428;2023-11-19T01:08:02;9.45;;;5.00;;
45328;SDS011;72636;48.160;11.428;2023-11-19T01:10:29;7.57;;;4.45;;
45328;SDS011;72636;48.160;11.428;2023-11-19T01:12:55;8.45;;;4.85;;
45328;SDS011;72636;48.160;11.428;2023-11-19T01:15:21;5.70;;;3.42;;
45328;SDS011;72636;48.160;11.428;2023-11-19T01:20:13;7.60;;;3.95;;
45328;SDS011;72636;48.160;11.428;2023-11-19T01:22:39;7.77;;;4.57;;
45328;SDS011;72636;48.160;11.428;2023-11-19T01:25:05;7.68;;;4.03;;
45328;SDS011;72636;48.160;11.428;2023-11-19T01:27:32;8.07;;;4.22;;
45328;SDS011;72636;48.160;11.428;2023-11-19T01:29:59;8.60;;;5.50;;
45328;SDS011;72636;48.160;11.428;2023-11-19T01:32:30;5.53;;;3.83;;
45328;SDS011;72636;48.160;11.428;2023-11-19T01:34:56;5.50;;;3.78;;
45328;SDS011;72636;48.160;11.428;2023-11-19T01:37:22;6.93;;;4.20;;
45328;SDS011;72636;48.160;11.428;2023-11-19T01:39:48;6.70;;;3.80;;
45328;SDS011;72636;48.160;11.428;2023-11-19T01:42:13;4.65;;;3.30;;
45328;SDS011;72636;48.160;11.428;2023-11-19T01:44:40;5.25;;;3.58;;
45328;SDS011;72636;48.160;11.428;2023-11-19T01:47:06;4.77;;;3.13;;
45328;SDS011;72636;48.160;11.428;2023-11-19T01:49:33;3.90;;;3.00;;
45328;SDS011;72636;48.160;11.428;2023-11-19T01:51:59;5.47;;;3.05;;
45328;SDS011;72636;48.160;11.428;2023-11-19T01:54:25;4.88;;;3.22;;
45328;SDS011;72636;48.160;11.428;2023-11-19T01:56:53;4.85;;;3.03;;
45328;SDS011;72636;48.160;11.428;2023-11-19T01:59:21;6.35;;;3.47;;
45328;SDS011;72636;48.160;11.428;2023-11-19T02:01:51;4.88;;;3.00;;
45328;SDS011;72636;48.160;11.428;2023-11-19T02:04:19;4.47;;;3.00;;
45328;SDS011;72636;48.160;11.428;2023-11-19T02:06:45;4.43;;;2.75;;
45328;SDS011;72636;48.160;11.428;2023-11-19T02:09:13;5.20;;;3.03;;
45328;SDS011;72636;48.160;11.428;2023-11-19T02:11:39;5.33;;;2.67;;
45328;SDS011;72636;48.160;11.428;2023-11-19T02:14:05;3.08;;;2.08;;
45328;SDS011;72636;48.160;11.428;2023-11-19T02:16:31;2.22;;;1.83;;
45328;SDS011;72636;48.160;11.428;2023-11-19T02:18:57;2.10;;;1.57;;
45328;SDS011;72636;48.160;11.428;2023-11-19T02:21:23;2.13;;;1.60;;
45328;SDS011;72636;48.160;11.428;2023-11-19T02:23:48;4.07;;;1.40;;
45328;SDS011;72636;48.160;11.428;2023-11-19T02:26:16;2.63;;;1.38;;
45328;SDS011;72636;48.160;11.428;2023-11-19T02:28:42;5.20;;;1.80;;
45328;SDS011;72636;48.160;11.428;2023-11-19T02:31:08;4.10;;;1.58;;
45328;SDS011;72636;48.160;11.428;2023-11-19T02:36:07;2.22;;;1.55;;
45328;SDS011;72636;48.160;11.428;2023-11-19T02:38:34;1.98;;;1.60;;
45328;SDS011;72636;48.160;11.428;2023-11-19T02:41:02;3.38;;;1.30;;
45328;SDS011;72636;48.160;11.428;2023-11-19T02:43:31;1.30;;;1.20;;
45328;SDS011;72636;48.160;11.428;2023-11-19T02:46:03;1.92;;;1.25;;
45328;SDS011;72636;48.160;11.428;2023-11-19T02:48:35;2.10;;;1.50;;
45328;SDS011;72636;48.160;11.428;2023-11-19T02:51:01;1.52;;;1.20;;
45328;SDS011;72636;48.160;11.428;2023-11-19T02:53:28;1.42;;;1.25;;
45328;SDS011;72636;48.160;11.428;2023-11-19T02:55:54;3.20;;;1.50;;
45328;SDS011;72636;48.160;11.428;2023-11-19T02:58:31;1.25;;;0.95;;
45328;SDS011;72636;48.160;11.428;2023-11-19T03:00:57;2.55;;;1.13;;
45328;SDS011;72636;48.160;11.428;2023-11-19T03:03:24;1.92;;;1.15;;
45328;SDS011;72636;48.160;11.428;2023-11-19T03:05:56;1.58;;;0.95;;
45328;SDS011;72636;48.160;11.428;2023-11-19T03:08:24;1.55;;;0.90;;
45328;SDS011;72636;48.160;11.428;2023-11-19T03:10:50;1.10;;;0.80;;
45328;SDS011;72636;48.160;11.428;2023-11-19T03:13:15;0.87;;;0.70;;
45328;SDS011;72636;48.160;11.428;2023-11-19T03:15:42;2.53;;;1.00;;
45328;SDS011;72636;48.160;11.428;2023-11-19T03:18:08;1.03;;;0.70;;
45328;SDS011;72636;48.160;11.428;2023-11-19T03:20:34;1.77;;;0.90;;
45328;SDS011;72636;48.160;11.428;2023-11-19T03:22:59;2.43;;;1.07;;
45328;SDS011;72636;48.160;11.428;2023-11-19T03:27:57;1.90;;;0.65;;
45328;SDS011;72636;48.160;11.428;2023-11-19T03:30:26;0.82;;;0.70;;
45328;SDS011;72636;48.160;11.428;2023-11-19T03:32:53;0.90;;;0.70;;
45328;SDS011;72636;48.160;11.428;2023-11-19T03:35:19;1.15;;;0.70;;
45328;SDS011;72636;48.160;11.428;2023-11-19T03:37:45;0.88;;;0.65;;
45328;SDS011;72636;48.160;11.428;2023-11-19T03:40:11;0.95;;;0.50;;
45328;SDS011;72636;48.160;11.428;2023-11-19T03:42:37;0.70;;;0.40;;
45328;SDS011;72636;48.160;11.428;2023-11-19T03:45:05;1.80;;;0.70;;
45328;SDS011;72636;48.160;11.428;2023-11-19T03:47:34;1.17;;;0.60;;
45328;SDS011;72636;48.160;11.428;2023-11-19T03:52:25;0.50;;;0.40;;
45328;SDS011;72636;48.160;11.428;2023-11-19T03:54:57;0.60;;;0.60;;
45328;SDS011;72636;48.160;11.428;2023-11-19T03:57:23;0.47;;;0.43;;
45328;SDS011;72636;48.160;11.428;2023-11-19T03:59:49;0.38;;;0.38;;
45328;SDS011;72636;48.160;11.428;2023-11-19T04:02:15;0.40;;;0.40;;
45328;SDS011;72636;48.160;11.428;2023-11-19T04:04:41;1.00;;;0.50;;
45328;SDS011;72636;48.160;11.428;2023-11-19T04:07:06;0.87;;;0.63;;
45328;SDS011;72636;48.160;11.428;2023-11-19T04:09:32;2.43;;;0.57;;
45328;SDS011;72636;48.160;11.428;2023-11-19T04:11:58;1.17;;;0.65;;
45328;SDS011;72636;48.160;11.428;2023-11-19T04:14:25;1.48;;;0.80;;
45328;SDS011;72636;48.160;11.428;2023-11-19T04:16:51;0.65;;;0.60;;
45328;SDS011;72636;48.160;11.428;2023-11-19T04:19:17;0.60;;;0.60;;
45328;SDS011;72636;48.160;11.428;2023-11-19T04:24:09;0.43;;;0.40;;
45328;SDS011;72636;48.160;11.428;2023-11-19T04:26:43;0.60;;;0.60;;
45328;SDS011;72636;48.160;11.428;2023-11-19T04:29:11;1.45;;;0.60;;
45328;SDS011;72636;48.160;11.428;2023-11-19T04:31:37;1.08;;;0.70;;
45328;SDS011;72636;48.160;11.428;2023-11-19T04:34:04;0.75;;;0.68;;
45328;SDS011;72636;48.160;11.428;2023-11-19T04:36:31;1.02;;;0.75;;
45328;SDS011;72636;48.160;11.428;2023-11-19T04:38:58;1.48;;;0.50;;
45328;SDS011;72636;48.160;11.428;2023-11-19T04:41:24;1.02;;;0.63;;
45328;SDS011;72636;48.160;11.428;2023-11-19T04:43:50;1.27;;;0.55;;
45328;SDS011;72636;48.160;11.428;2023-11-19T04:46:15;1.50;;;0.60;;
45328;SDS011;72636;48.160;11.428;2023-11-19T04:48:41;0.43;;;0.40;;
45328;SDS011;72636;48.160;11.428;2023-11-19T04:51:07;2.90;;;0.70;;
45328;SDS011;72636;48.160;11.428;2023-11-19T04:53:34;1.33;;;0.63;;
45328;SDS011;72636;48.160;11.428;2023-11-19T04:56:00;0.60;;;0.60;;
45328;SDS011;72636;48.160;11.428;2023-11-19T04:58:26;1.43;;;0.80;;
45328;SDS011;72636;48.160;11.428;2023-11-19T05:00:54;1.00;;;0.60;;
45328;SDS011;72636;48.160;11.428;2023-11-19T05:03:20;2.05;;;0.98;;
45328;SDS011;72636;48.160;11.428;2023-11-19T05:05:47;1.88;;;0.80;;
45328;SDS011;72636;48.160;11.428;2023-11-19T05:08:13;1.75;;;0.70;;
45328;SDS011;72636;48.160;11.428;2023-11-19T05:10:39;0.97;;;0.87;;
45328;SDS011;72636;48.160;11.428;2023-11-19T05:13:05;1.45;;;0.52;;
45328;SDS011;72636;48.160;11.428;2023-11-19T05:15:31;1.23;;;1.13;;
45328;SDS011;72636;48.160;11.428;2023-11-19T05:17:56;2.13;;;0.70;;
45328;SDS011;72636;48.160;11.428;2023-11-19T05:20:22;3.23;;;0.70;;
45328;SDS011;72636;48.160;11.428;2023-11-19T05:22:47;1.67;;;0.80;;
45328;SDS011;72636;48.160;11.428;2023-11-19T05:25:16;2.35;;;0.90;;
45328;SDS011;72636;48.160;11.428;2023-11-19T05:27:41;0.73;;;0.60;;
45328;SDS011;72636;48.160;11.428;2023-11-19T05:30:07;1.23;;;0.70;;
45328;SDS011;72636;48.160;11.428;2023-11-19T05:32:33;0.50;;;0.40;;
45328;SDS011;72636;48.160;11.428;2023-11-19T05:34:59;0.60;;;0.60;;
45328;SDS011;72636;48.160;11.428;2023-11-19T05:37:24;0.80;;;0.67;;
45328;SDS011;72636;48.160;11.428;2023-11-19T05:39:50;3.87;;;0.93;;
45328;SDS011;72636;48.160;11.428;2023-11-19T05:42:16;0.70;;;0.70;;
45328;SDS011;72636;48.160;11.428;2023-11-19T05:44:42;0.90;;;0.80;;
45328;SDS011;72636;48.160;11.428;2023-11-19T05:47:07;1.87;;;0.73;;
45328;SDS011;72636;48.160;11.428;2023-11-19T05:49:33;0.73;;;0.73;;
45328;SDS011;72636;48.160;11.428;2023-11-19T05:51:59;0.83;;;0.73;;
45328;SDS011;72636;48.160;11.428;2023-11-19T05:54:25;1.77;;;0.80;;
45328;SDS011;72636;48.160;11.428;2023-11-19T05:56:51;0.63;;;0.63;;
45328;SDS011;72636;48.160;11.428;2023-11-19T05:59:19;0.60;;;0.52;;
45328;SDS011;72636;48.160;11.428;2023-11-19T06:01:45;1.02;;;0.70;;
45328;SDS011;72636;48.160;11.428;2023-11-19T06:04:10;0.70;;;0.70;;
45328;SDS011;72636;48.160;11.428;2023-11-19T06:06:36;0.70;;;0.60;;
45328;SDS011;72636;48.160;11.428;2023-11-19T06:09:02;0.50;;;0.50;;
45328;SDS011;72636;48.160;11.428;2023-11-19T06:13:54;0.80;;;0.57;;
45328;SDS011;72636;48.160;11.428;2023-11-19T06:16:19;1.27;;;0.70;;
45328;SDS011;72636;48.160;11.428;2023-11-19T06:18:45;1.17;;;0.57;;
45328;SDS011;72636;48.160;11.428;2023-11-19T06:21:11;0.97;;;0.50;;
45328;SDS011;72636;48.160;11.428;2023-11-19T06:23:37;0.70;;;0.70;;
45328;SDS011;72636;48.160;11.428;2023-11-19T06:26:03;0.70;;;0.70;;
45328;SDS011;72636;48.160;11.428;2023-11-19T06:28:30;1.15;;;1.05;;
45328;SDS011;72636;48.160;11.428;2023-11-19T06:30:56;0.98;;;0.68;;
45328;SDS011;72636;48.160;11.428;2023-11-19T06:33:23;0.60;;;0.50;;
45328;SDS011;72636;48.160;11.428;2023-11-19T06:35:49;0.50;;;0.50;;
45328;SDS011;72636;48.160;11.428;2023-11-19T06:38:15;0.50;;;0.50;;
45328;SDS011;72636;48.160;11.428;2023-11-19T06:40:40;0.40;;;0.40;;
45328;SDS011;72636;48.160;11.428;2023-11-19T06:43:06;1.23;;;0.50;;
45328;SDS011;72636;48.160;11.428;2023-11-19T06:45:34;0.32;;;0.32;;
45328;SDS011;72636;48.160;11.428;2023-11-19T06:48:03;1.13;;;0.50;;
45328;SDS011;72636;48.160;11.428;2023-11-19T06:50:29;0.60;;;0.35;;
45328;SDS011;72636;48.160;11.428;2023-11-19T06:52:55;0.40;;;0.40;;
45328;SDS011;72636;48.160;11.428;2023-11-19T06:55:21;0.40;;;0.30;;
45328;SDS011;72636;48.160;11.428;2023-11-19T06:57:46;0.57;;;0.50;;
45328;SDS011;72636;48.160;11.428;2023-11-19T07:00:12;0.43;;;0.33;;
45328;SDS011;72636;48.160;11.428;2023-11-19T07:02:38;0.60;;;0.60;;
45328;SDS011;72636;48.160;11.428;2023-11-19T07:05:04;0.60;;;0.60;;
45328;SDS011;72636;48.160;11.428;2023-11-19T07:07:31;1.23;;;0.63;;
45328;SDS011;72636;48.160;11.428;2023-11-19T07:09:57;0.38;;;0.38;;
45328;SDS011;72636;48.160;11.428;2023-11-19T07:12:23;0.73;;;0.43;;
45328;SDS011;72636;48.160;11.428;2023-11-19T07:14:51;0.32;;;0.32;;
45328;SDS011;72636;48.160;11.428;2023-11-19T07:17:18;0.77;;;0.40;;
45328;SDS011;72636;48.160;11.428;2023-11-19T07:19:45;0.30;;;0.28;;
45328;SDS011;72636;48.160;11.428;2023-11-19T07:22:11;0.57;;;0.50;;
45328;SDS011;72636;48.160;11.428;2023-11-19T07:24:38;0.27;;;0.20;;
45328;SDS011;72636;48.160;11.428;2023-11-19T07:27:05;0.25;;;0.25;;
45328;SDS011;72636;48.160;11.428;2023-11-19T07:29:31;0.63;;;0.60;;
45328;SDS011;72636;48.160;11.428;2023-11-19T07:31:57;0.60;;;0.40;;
45328;SDS011;72636;48.160;11.428;2023-11-19T07:34:23;0.20;;;0.20;;
45328;SDS011;72636;48.160;11.428;2023-11-19T07:36:49;0.30;;;0.30;;
45328;SDS011;72636;48.160;11.428;2023-11-19T07:39:15;0.33;;;0.33;;
45328;SDS011;72636;48.160;11.428;2023-11-19T07:41:41;0.73;;;0.30;;
45328;SDS011;72636;48.160;11.428;2023-11-19T07:44:06;0.40;;;0.40;;
45328;SDS011;72636;48.160;11.428;2023-11-19T07:46:32;0.57;;;0.30;;
45328;SDS011;72636;48.160;11.428;2023-11-19T07:48:58;0.40;;;0.30;;
45328;SDS011;72636;48.160;11.428;2023-11-19T07:51:23;0.20;;;0.20;;
45328;SDS011;72636;48.160;11.428;2023-11-19T07:53:49;0.40;;;0.30;;
45328;SDS011;72636;48.160;11.428;2023-11-19T07:56:14;0.40;;;0.40;;
45328;SDS011;72636;48.160;11.428;2023-11-19T07:58:40;1.80;;;0.50;;
45328;SDS011;72636;48.160;11.428;2023-11-19T08:01:06;0.50;;;0.30;;
45328;SDS011;72636;48.160;11.428;2023-11-19T08:03:32;0.30;;;0.30;;
45328;SDS011;72636;48.160;11.428;2023-11-19T08:05:59;0.77;;;0.35;;
45328;SDS011;72636;48.160;11.428;2023-11-19T08:08:25;0.40;;;0.40;;
45328;SDS011;72636;48.160;11.428;2023-11-19T08:10:50;0.30;;;0.30;;
45328;SDS011;72636;48.160;11.428;2023-11-19T08:13:19;0.75;;;0.40;;
45328;SDS011;72636;48.160;11.428;2023-11-19T08:15:45;0.50;;;0.40;;
45328;SDS011;72636;48.160;11.428;2023-11-19T08:20:37;0.63;;;0.50;;
45328;SDS011;72636;48.160;11.428;2023-11-19T08:23:03;0.30;;;0.30;;
45328;SDS011;72636;48.160;11.428;2023-11-19T08:25:28;0.37;;;0.37;;
45328;SDS011;72636;48.160;11.428;2023-11-19T08:27:54;0.73;;;0.50;;
45328;SDS011;72636;48.160;11.428;2023-11-19T08:30:20;0.23;;;0.23;;
45328;SDS011;72636;48.160;11.428;2023-11-19T08:32:45;0.30;;;0.30;;
45328;SDS011;72636;48.160;11.428;2023-11-19T08:35:11;0.40;;;0.40;;
45328;SDS011;72636;48.160;11.428;2023-11-19T08:37:37;0.83;;;0.50;;
45328;SDS011;72636;48.160;11.428;2023-11-19T08:42:29;0.52;;;0.40;;
45328;SDS011;72636;48.160;11.428;2023-11-19T08:44:55;0.50;;;0.50;;
45328;SDS011;72636;48.160;11.428;2023-11-19T08:47:21;0.90;;;0.38;;
45328;SDS011;72636;48.160;11.428;2023-11-19T08:49:50;0.30;;;0.30;;
45328;SDS011;72636;48.160;11.428;2023-11-19T08:52:17;0.38;;;0.38;;
45328;SDS011;72636;48.160;11.428;2023-11-19T08:54:43;0.40;;;0.40;;
45328;SDS011;72636;48.160;11.428;2023-11-19T08:57:08;0.68;;;0.47;;
45328;SDS011;72636;48.160;11.428;2023-11-19T08:59:34;0.50;;;0.50;;
45328;SDS011;72636;48.160;11.428;2023-11-19T09:02:00;0.95;;;0.50;;
45328;SDS011;72636;48.160;11.428;2023-11-19T09:04:26;0.95;;;0.40;;
45328;SDS011;72636;48.160;11.428;2023-11-19T09:06:52;0.40;;;0.40;;
45328;SDS011;72636;48.160;11.428;2023-11-19T09:09:18;0.50;;;0.50;;
45328;SDS011;72636;48.160;11.428;2023-11-19T09:11:44;0.30;;;0.30;;
45328;SDS011;72636;48.160;11.428;2023-11-19T09:14:09;0.30;;;0.30;;
45328;SDS011;72636;48.160;11.428;2023-11-19T09:16:35;0.57;;;0.50;;
45328;SDS011;72636;48.160;11.428;2023-11-19T09:19:00;0.60;;;0.60;;
45328;SDS011;72636;48.160;11.428;2023-11-19T09:21:27;0.57;;;0.57;;
45328;SDS011;72636;48.160;11.428;2023-11-19T09:23:55;0.50;;;0.40;;
45328;SDS011;72636;48.160;11.428;2023-11-19T09:26:21;0.70;;;0.60;;
45328;SDS011;72636;48.160;11.428;2023-11-19T09:28:46;0.50;;;0.40;;
45328;SDS011;72636;48.160;11.428;2023-11-19T09:31:16;0.68;;;0.55;;
45328;SDS011;72636;48.160;11.428;2023-11-19T09:33:42;1.42;;;0.60;;
45328;SDS011;72636;48.160;11.428;2023-11-19T09:36:08;1.55;;;0.40;;
45328;SDS011;72636;48.160;11.428;2023-11-19T09:38:34;0.40;;;0.40;;
45328;SDS011;72636;48.160;11.428;2023-11-19T09:41:04;0.65;;;0.30;;
45328;SDS011;72636;48.160;11.428;2023-11-19T09:43:33;0.35;;;0.30;;
45328;SDS011;72636;48.160;11.428;2023-11-19T09:46:02;1.02;;;0.40;;
45328;SDS011;72636;48.160;11.428;2023-11-19T09:48:36;0.50;;;0.50;;
45328;SDS011;72636;48.160;11.428;2023-11-19T09:53:29;0.50;;;0.50;;
45328;SDS011;72636;48.160;11.428;2023-11-19T09:55:57;0.95;;;0.52;;
45328;SDS011;72636;48.160;11.428;2023-11-19T09:58:25;2.38;;;0.57;;
45328;SDS011;72636;48.160;11.428;2023-11-19T10:00:51;1.70;;;0.70;;
45328;SDS011;72636;48.160;11.428;2023-11-19T10:03:19;0.38;;;0.38;;
45328;SDS011;72636;48.160;11.428;2023-11-19T10:05:47;0.43;;;0.35;;
45328;SDS011;72636;48.160;11.428;2023-11-19T10:08:12;0.40;;;0.40;;
45328;SDS011;72636;48.160;11.428;2023-11-19T10:10:39;1.02;;;0.73;;
45328;SDS011;72636;48.160;11.428;2023-11-19T10:13:04;0.43;;;0.43;;
45328;SDS011;72636;48.160;11.428;2023-11-19T10:18:01;0.93;;;0.57;;
45328;SDS011;72636;48.160;11.428;2023-11-19T10:20:27;1.45;;;0.60;;
45328;SDS011;72636;48.160;11.428;2023-11-19T10:22:54;0.80;;;0.68;;
45328;SDS011;72636;48.160;11.428;2023-11-19T10:25:24;0.55;;;0.50;;
45328;SDS011;72636;48.160;11.428;2023-11-19T10:27:57;1.02;;;0.40;;
45328;SDS011;72636;48.160;11.428;2023-11-19T10:35:54;0.40;;;0.40;;
45328;SDS011;72636;48.160;11.428;2023-11-19T10:38:24;1.00;;;0.70;;
45328;SDS011;72636;48.160;11.428;2023-11-19T10:40:51;1.27;;;0.73;;
45328;SDS011;72636;48.160;11.428;2023-11-19T10:45:43;2.38;;;0.70;;
45328;SDS011;72636;48.160;11.428;2023-11-19T10:48:09;1.02;;;0.47;;
45328;SDS011;72636;48.160;11.428;2023-11-19T10:50:37;0.50;;;0.50;;
45328;SDS011;72636;48.160;11.428;2023-11-19T10:53:04;0.70;;;0.50;;
45328;SDS011;72636;48.160;11.428;2023-11-19T10:55:31;0.52;;;0.38;;
45328;SDS011;72636;48.160;11.428;2023-11-19T10:58:03;0.65;;;0.45;;
45328;SDS011;72636;48.160;11.428;2023-11-19T11:00:47;0.65;;;0.47;;
45328;SDS011;72636;48.160;11.428;2023-11-19T11:03:20;0.50;;;0.50;;
45328;SDS011;72636;48.160;11.428;2023-11-19T11:05:50;0.73;;;0.50;;
45328;SDS011;72636;48.160;11.428;2023-11-19T11:08:17;0.38;;;0.38;;
45328;SDS011;72636;48.160;11.428;2023-11-19T11:10:53;0.73;;;0.40;;
45328;SDS011;72636;48.160;11.428;2023-11-19T11:13:22;0.65;;;0.38;;
45328;SDS011;72636;48.160;11.428;2023-11-19T11:15:49;0.40;;;0.40;;
45328;SDS011;72636;48.160;11.428;2023-11-19T11:20:44;0.43;;;0.38;;
45328;SDS011;72636;48.160;11.428;2023-11-19T11:26:14;0.88;;;0.35;;
45328;SDS011;72636;48.160;11.428;2023-11-19T11:34:51;0.47;;;0.47;;
45328;SDS011;72636;48.160;11.428;2023-11-19T11:39:38;0.45;;;0.30;;
45328;SDS011;72636;48.160;11.428;2023-11-19T11:55:37;0.20;;;0.20;;
45328;SDS011;72636;48.160;11.428;2023-11-19T11:58:18;0.65;;;0.40;;
45328;SDS011;72636;48.160;11.428;2023-11-19T12:00:51;1.15;;;0.40;;
45328;SDS011;72636;48.160;11.428;2023-11-19T12:03:19;1.15;;;0.38;;
45328;SDS011;72636;48.160;11.428;2023-11-19T12:05:49;0.40;;;0.40;;
45328;SDS011;72636;48.160;11.428;2023-11-19T12:08:15;0.47;;;0.40;;
45328;SDS011;72636;48.160;11.428;2023-11-19T12:10:46;0.40;;;0.40;;
45328;SDS011;72636;48.160;11.428;2023-11-19T12:13:15;2.83;;;0.30;;
45328;SDS011;72636;48.160;11.428;2023-11-19T12:20:49;0.57;;;0.30;;
45328;SDS011;72636;48.160;11.428;2023-11-19T12:23:15;1.08;;;0.30;;
45328;SDS011;72636;48.160;11.428;2023-11-19T12:25:41;0.50;;;0.30;;
45328;SDS011;72636;48.160;11.428;2023-11-19T12:28:11;0.30;;;0.30;;
45328;SDS011;72636;48.160;11.428;2023-11-19T12:30:38;0.55;;;0.28;;
45328;SDS011;72636;48.160;11.428;2023-11-19T12:33:07;1.08;;;0.32;;
45328;SDS011;72636;48.160;11.428;2023-11-19T12:35:43;0.55;;;0.50;;
45328;SDS011;72636;48.160;11.428;2023-11-19T12:40:46;1.25;;;0.47;;
45328;SDS011;72636;48.160;11.428;2023-11-19T12:43:20;1.30;;;0.65;;
45328;SDS011;72636;48.160;11.428;2023-11-19T12:45:50;2.90;;;0.60;;
45328;SDS011;72636;48.160;11.428;2023-11-19T12:48:15;1.23;;;0.40;;
45328;SDS011;72636;48.160;11.428;2023-11-19T12:50:51;2.00;;;0.40;;
45328;SDS011;72636;48.160;11.428;2023-11-19T12:53:19;0.95;;;0.30;;
45328;SDS011;72636;48.160;11.428;2023-11-19T12:55:48;2.20;;;0.32;;
45328;SDS011;72636;48.160;11.428;2023-11-19T12:58:30;0.30;;;0.22;;
45328;SDS011;72636;48.160;11.428;2023-11-19T13:01:01;1.00;;;0.30;;
45328;SDS011;72636;48.160;11.428;2023-11-19T13:03:31;0.75;;;0.30;;
45328;SDS011;72636;48.160;11.428;2023-11-19T13:06:02;0.70;;;0.40;;
45328;SDS011;72636;48.160;11.428;2023-11-19T13:08:28;0.68;;;0.38;;
45328;SDS011;72636;48.160;11.428;2023-11-19T13:11:01;1.60;;;0.50;;
45328;SDS011;72636;48.160;11.428;2023-11-19T13:13:27;0.30;;;0.30;;
45328;SDS011;72636;48.160;11.428;2023-11-19T13:15:53;2.07;;;0.40;;
45328;SDS011;72636;48.160;11.428;2023-11-19T13:18:18;0.73;;;0.50;;
45328;SDS011;72636;48.160;11.428;2023-11-19T13:20:44;0.30;;;0.30;;
45328;SDS011;72636;48.160;11.428;2023-11-19T13:23:10;0.33;;;0.30;;
45328;SDS011;72636;48.160;11.428;2023-11-19T13:25:35;0.30;;;0.30;;
45328;SDS011;72636;48.160;11.428;2023-11-19T13:28:01;2.25;;;0.50;;
45328;SDS011;72636;48.160;11.428;2023-11-19T13:30:27;1.05;;;0.32;;
45328;SDS011;72636;48.160;11.428;2023-11-19T13:32:54;0.98;;;0.40;;
45328;SDS011;72636;48.160;11.428;2023-11-19T13:35:21;2.75;;;0.50;;
45328;SDS011;72636;48.160;11.428;2023-11-19T13:37:49;1.05;;;0.70;;
45328;SDS011;72636;48.160;11.428;2023-11-19T13:40:16;2.20;;;0.45;;
45328;SDS011;72636;48.160;11.428;2023-11-19T13:42:42;2.77;;;0.60;;
45328;SDS011;72636;48.160;11.428;2023-11-19T13:45:09;0.45;;;0.45;;
45328;SDS011;72636;48.160;11.428;2023-11-19T13:47:38;1.50;;;0.50;;
45328;SDS011;72636;48.160;11.428;2023-11-19T13:50:06;0.55;;;0.50;;
45328;SDS011;72636;48.160;11.428;2023-11-19T13:52:34;0.55;;;0.40;;
45328;SDS011;72636;48.160;11.428;2023-11-19T13:54:59;2.88;;;0.50;;
45328;SDS011;72636;48.160;11.428;2023-11-19T13:57:25;2.20;;;0.80;;
45328;SDS011;72636;48.160;11.428;2023-11-19T13:59:51;1.07;;;0.73;;
45328;SDS011;72636;48.160;11.428;2023-11-19T14:02:16;3.73;;;0.53;;
45328;SDS011;72636;48.160;11.428;2023-11-19T14:04:42;1.43;;;0.70;;
45328;SDS011;72636;48.160;11.428;2023-11-19T14:07:07;0.70;;;0.60;;
45328;SDS011;72636;48.160;11.428;2023-11-19T14:09:33;0.97;;;0.50;;
45328;SDS011;72636;48.160;11.428;2023-11-19T14:11:59;0.50;;;0.30;;
45328;SDS011;72636;48.160;11.428;2023-11-19T14:14:24;0.40;;;0.40;;
45328;SDS011;72636;48.160;11.428;2023-11-19T14:16:50;0.50;;;0.30;;
45328;SDS011;72636;48.160;11.428;2023-11-19T14:19:15;0.87;;;0.43;;
45328;SDS011;72636;48.160;11.428;2023-11-19T14:21:41;1.10;;;0.90;;
45328;SDS011;72636;48.160;11.428;2023-11-19T14:24:07;1.93;;;1.70;;
45328;SDS011;72636;48.160;11.428;2023-11-19T14:26:32;1.10;;;0.90;;
45328;SDS011;72636;48.160;11.428;2023-11-19T14:28:58;0.70;;;0.40;;
45328;SDS011;72636;48.160;11.428;2023-11-19T14:31:27;0.60;;;0.40;;
45328;SDS011;72636;48.160;11.428;2023-11-19T14:33:53;0.57;;;0.47;;
45328;SDS011;72636;48.160;11.428;2023-11-19T14:36:19;0.53;;;0.37;;
45328;SDS011;72636;48.160;11.428;2023-11-19T14:38:45;0.85;;;0.60;;
45328;SDS011;72636;48.160;11.428;2023-11-19T14:41:11;1.40;;;0.50;;
45328;SDS011;72636;48.160;11.428;2023-11-19T14:43:38;2.47;;;0.50;;
45328;SDS011;72636;48.160;11.428;2023-11-19T14:46:04;0.75;;;0.40;;
45328;SDS011;72636;48.160;11.428;2023-11-19T14:48:31;1.30;;;0.70;;
45328;SDS011;72636;48.160;11.428;2023-11-19T14:50:57;0.77;;;0.63;;
45328;SDS011;72636;48.160;11.428;2023-11-19T14:53:23;0.77;;;0.43;;
45328;SDS011;72636;48.160;11.428;2023-11-19T14:55:48;1.33;;;0.60;;
45328;SDS011;72636;48.160;11.428;2023-11-19T14:58:14;2.10;;;0.53;;
45328;SDS011;72636;48.160;11.428;2023-11-19T15:00:39;1.70;;;0.60;;
45328;SDS011;72636;48.160;11.428;2023-11-19T15:03:05;0.60;;;0.60;;
45328;SDS011;72636;48.160;11.428;2023-11-19T15:05:31;1.42;;;0.43;;
45328;SDS011;72636;48.160;11.428;2023-11-19T15:07:57;2.63;;;0.63;;
45328;SDS011;72636;48.160;11.428;2023-11-19T15:10:22;1.03;;;0.60;;
45328;SDS011;72636;48.160;11.428;2023-11-19T15:12:49;1.27;;;0.60;;
45328;SDS011;72636;48.160;11.428;2023-11-19T15:15:15;1.07;;;0.63;;
45328;SDS011;72636;48.160;11.428;2023-11-19T15:17:41;1.00;;;0.60;;
45328;SDS011;72636;48.160;11.428;2023-11-19T15:20:07;2.07;;;0.50;;
45328;SDS011;72636;48.160;11.428;2023-11-19T15:22:33;0.68;;;0.65;;
45328;SDS011;72636;48.160;11.428;2023-11-19T15:24:58;1.67;;;0.80;;
45328;SDS011;72636;48.160;11.428;2023-11-19T15:27:24;1.70;;;0.60;;
45328;SDS011;72636;48.160;11.428;2023-11-19T15:29:50;2.13;;;0.53;;
45328;SDS011;72636;48.160;11.428;2023-11-19T15:32:15;1.80;;;0.80;;
45328;SDS011;72636;48.160;11.428;2023-11-19T15:34:41;1.63;;;0.70;;
45328;SDS011;72636;48.160;11.428;2023-11-19T15:37:07;0.73;;;0.73;;
45328;SDS011;72636;48.160;11.428;2023-11-19T15:39:33;0.60;;;0.60;;
45328;SDS011;72636;48.160;11.428;2023-11-19T15:42:01;1.15;;;0.70;;